createdAt,value
2022-08-14T00:00:23.946Z,8.82
2022-08-14T00:02:54.643Z,9.00
2022-08-14T00:05:27.915Z,8.98
2022-08-14T00:07:58.272Z,8.57
2022-08-14T00:10:52.198Z,8.65
2022-08-14T00:13:22.000Z,8.95
2022-08-14T00:15:53.920Z,8.70
2022-08-14T00:18:30.703Z,8.27
2022-08-14T00:21:22.352Z,8.23
2022-08-14T00:24:01.412Z,8.57
2022-08-14T00:26:32.448Z,8.48
2022-08-14T00:29:02.631Z,8.18
2022-08-14T00:31:35.149Z,8.70
2022-08-14T00:34:35.269Z,8.40
2022-08-14T00:37:08.424Z,7.97
2022-08-14T00:39:39.135Z,8.07
2022-08-14T00:42:52.479Z,7.93
2022-08-14T00:45:02.449Z,8.75
2022-08-14T00:47:32.588Z,7.78
2022-08-14T00:50:18.197Z,7.90
2022-08-14T00:52:56.068Z,8.38
2022-08-14T00:55:27.931Z,8.82
2022-08-14T00:58:16.942Z,8.50
2022-08-14T01:00:51.148Z,7.88
2022-08-14T01:03:23.810Z,8.30
2022-08-14T01:05:55.873Z,8.27
2022-08-14T01:08:51.475Z,8.10
2022-08-14T01:11:23.137Z,7.75
2022-08-14T01:14:01.078Z,8.15
2022-08-14T01:16:33.369Z,8.30
2022-08-14T01:19:19.771Z,8.23
2022-08-14T01:21:53.824Z,7.57
2022-08-14T01:24:30.896Z,7.97
2022-08-14T01:30:03.158Z,8.02
2022-08-14T01:35:18.267Z,9.02
2022-08-14T01:37:56.216Z,8.95
2022-08-14T01:40:33.298Z,8.80
2022-08-14T01:43:18.892Z,9.07
2022-08-14T01:45:57.641Z,8.85
2022-08-14T01:48:37.597Z,8.68
2022-08-14T01:51:19.063Z,8.20
2022-08-14T01:53:57.614Z,9.20
2022-08-14T01:56:39.319Z,8.57
2022-08-14T01:59:18.127Z,9.73
2022-08-14T02:01:58.677Z,8.48
2022-08-14T02:04:54.703Z,8.57
2022-08-14T02:07:34.554Z,8.45
2022-08-14T02:10:18.060Z,9.35
2022-08-14T02:12:57.130Z,8.93
2022-08-14T02:15:28.398Z,8.73
2022-08-14T02:20:34.182Z,8.80
2022-08-14T02:23:06.452Z,8.45
2022-08-14T02:25:41.430Z,8.50
2022-08-14T02:28:23.365Z,8.52
2022-08-14T02:31:02.916Z,9.25
2022-08-14T02:33:33.761Z,9.10
2022-08-14T02:37:04.988Z,9.45
2022-08-14T02:39:01.152Z,9.07
2022-08-14T02:41:38.999Z,9.52
2022-08-14T02:44:14.160Z,8.60
2022-08-14T02:46:45.366Z,8.90
2022-08-14T02:49:27.460Z,8.40
2022-08-14T02:52:56.072Z,9.35
2022-08-14T02:54:57.230Z,8.93
2022-08-14T02:57:39.806Z,8.48
2022-08-14T03:00:18.761Z,9.18
2022-08-14T03:02:58.572Z,9.55
2022-08-14T03:05:36.213Z,9.00
2022-08-14T03:08:09.758Z,8.95
2022-08-14T03:10:48.494Z,8.82
2022-08-14T03:13:22.845Z,8.32
2022-08-14T03:15:57.873Z,8.73
2022-08-14T03:18:32.725Z,8.30
2022-08-14T03:21:11.333Z,8.55
2022-08-14T03:23:42.272Z,9.05
2022-08-14T03:26:18.161Z,9.05
2022-08-14T03:28:54.322Z,8.85
2022-08-14T03:31:27.914Z,8.38
2022-08-14T03:34:01.922Z,9.10
2022-08-14T03:37:38.575Z,9.00
2022-08-14T03:39:27.617Z,8.82
2022-08-14T03:42:01.656Z,9.15
2022-08-14T03:45:25.218Z,9.20
2022-08-14T03:47:46.620Z,8.95
2022-08-14T03:50:27.691Z,10.05
2022-08-14T03:53:03.362Z,9.48
2022-08-14T03:55:34.207Z,9.05
2022-08-14T04:00:43.426Z,9.60
2022-08-14T04:03:24.143Z,9.00
2022-08-14T04:05:55.249Z,9.00
2022-08-14T04:11:02.785Z,8.85
2022-08-14T04:13:34.876Z,9.05
2022-08-14T04:16:12.731Z,8.63
2022-08-14T04:18:45.464Z,9.10
2022-08-14T04:21:18.171Z,8.65
2022-08-14T04:23:57.247Z,9.00
2022-08-14T04:26:42.041Z,8.73
2022-08-14T04:29:15.207Z,8.52
2022-08-14T04:33:01.662Z,9.60
2022-08-14T04:34:42.853Z,9.25
2022-08-14T04:40:20.368Z,10.02
2022-08-14T04:43:02.961Z,9.63
2022-08-14T04:45:41.002Z,9.73
2022-08-14T04:48:40.058Z,10.50
2022-08-14T04:51:09.192Z,9.48
2022-08-14T04:53:44.678Z,8.75
2022-08-14T04:56:30.926Z,9.77
2022-08-14T04:59:11.162Z,10.35
2022-08-14T05:01:49.092Z,9.60
2022-08-14T05:04:25.275Z,9.85
2022-08-14T05:06:57.681Z,9.50
2022-08-14T05:09:28.668Z,10.27
2022-08-14T05:12:39.716Z,10.02
2022-08-14T05:14:55.267Z,10.35
2022-08-14T05:17:31.862Z,10.32
2022-08-14T05:21:04.879Z,9.95
2022-08-14T05:23:08.057Z,10.35
2022-08-14T05:25:41.666Z,10.77
2022-08-14T05:28:18.087Z,11.90
2022-08-14T05:30:50.070Z,10.88
2022-08-14T05:33:24.465Z,10.48
2022-08-14T05:36:01.436Z,10.13
2022-08-14T05:38:35.622Z,10.43
2022-08-14T05:41:08.756Z,10.75
2022-08-14T05:43:41.126Z,11.35
2022-08-14T05:46:15.681Z,10.73
2022-08-14T05:48:46.116Z,12.13
2022-08-14T05:51:19.496Z,11.82
2022-08-14T05:54:00.143Z,10.98
2022-08-14T05:56:36.879Z,12.25
2022-08-14T05:59:08.347Z,11.90
2022-08-14T06:01:38.671Z,12.05
2022-08-14T06:04:08.869Z,13.05
2022-08-14T06:06:46.400Z,11.77
2022-08-14T06:09:17.478Z,11.02
2022-08-14T06:11:49.703Z,11.70
2022-08-14T06:14:23.955Z,10.88
2022-08-14T06:16:54.425Z,11.55
2022-08-14T06:19:25.007Z,10.75
2022-08-14T06:24:34.997Z,11.10
2022-08-14T06:27:10.084Z,10.60
2022-08-14T06:29:42.457Z,10.90
2022-08-14T06:32:37.808Z,13.82
2022-08-14T06:35:12.291Z,13.32
2022-08-14T06:40:27.925Z,10.35
2022-08-14T06:43:00.072Z,10.27
2022-08-14T06:45:31.618Z,9.85
2022-08-14T06:48:02.459Z,9.55
2022-08-14T06:50:36.240Z,9.88
2022-08-14T06:53:09.532Z,8.95
2022-08-14T06:55:57.892Z,8.98
2022-08-14T06:58:30.924Z,10.13
2022-08-14T07:01:14.482Z,10.30
2022-08-14T07:03:58.381Z,9.73
2022-08-14T07:06:46.642Z,9.07
2022-08-14T07:09:23.070Z,8.40
2022-08-14T07:11:53.851Z,8.50
2022-08-14T07:14:24.029Z,9.20
2022-08-14T07:16:54.207Z,9.32
2022-08-14T07:19:24.353Z,9.68
2022-08-14T07:21:55.141Z,10.55
2022-08-14T07:24:31.780Z,15.88
2022-08-14T07:27:02.049Z,12.30
2022-08-14T07:29:32.255Z,10.38
2022-08-14T07:32:03.624Z,9.20
2022-08-14T07:37:11.684Z,9.23
2022-08-14T07:39:44.481Z,11.27
2022-08-14T07:42:15.316Z,9.10
2022-08-14T07:44:52.877Z,9.02
2022-08-14T07:47:26.362Z,9.05
2022-08-14T07:50:05.090Z,8.88
2022-08-14T07:52:35.233Z,9.10
2022-08-14T07:55:12.048Z,8.50
2022-08-14T07:57:45.036Z,8.32
2022-08-14T08:00:31.581Z,9.23
2022-08-14T08:03:04.173Z,8.45
2022-08-14T08:05:35.750Z,8.65
2022-08-14T08:08:27.456Z,8.38
2022-08-14T08:11:03.745Z,9.05
2022-08-14T08:13:40.090Z,7.73
2022-08-14T08:16:11.262Z,8.48
2022-08-14T08:18:42.223Z,7.85
2022-08-14T08:21:13.579Z,7.45
2022-08-14T08:23:51.104Z,7.93
2022-08-14T08:26:24.392Z,8.10
2022-08-14T08:28:59.706Z,7.65
2022-08-14T08:31:33.077Z,7.53
2022-08-14T08:34:18.160Z,8.32
2022-08-14T08:36:48.932Z,8.13
2022-08-14T08:39:22.674Z,7.32
2022-08-14T08:41:56.003Z,7.35
2022-08-14T08:44:34.512Z,7.53
2022-08-14T08:47:08.103Z,7.65
2022-08-14T08:49:48.095Z,7.70
2022-08-14T08:52:25.125Z,6.18
2022-08-14T08:55:04.630Z,6.80
2022-08-14T08:57:39.902Z,6.03
2022-08-14T09:00:25.451Z,5.78
2022-08-14T09:02:59.395Z,5.85
2022-08-14T09:05:30.197Z,5.20
2022-08-14T09:08:21.746Z,6.90
2022-08-14T09:11:19.772Z,6.60
2022-08-14T09:13:56.785Z,5.43
2022-08-14T09:16:28.580Z,5.68
2022-08-14T09:18:59.023Z,5.80
2022-08-14T09:21:31.072Z,4.88
2022-08-14T09:24:29.388Z,5.38
2022-08-14T09:26:53.443Z,8.57
2022-08-14T09:29:28.858Z,10.40
2022-08-14T09:32:26.944Z,5.38
2022-08-14T09:35:08.617Z,5.50
2022-08-14T09:37:53.917Z,5.30
2022-08-14T09:40:42.300Z,4.85
2022-08-14T09:43:27.007Z,6.15
2022-08-14T09:46:02.775Z,4.55
2022-08-14T09:48:33.137Z,4.70
2022-08-14T09:56:56.611Z,4.68
2022-08-14T09:59:32.097Z,4.57
2022-08-14T10:02:07.300Z,4.47
2022-08-14T10:04:46.170Z,4.10
2022-08-14T10:07:20.857Z,4.57
2022-08-14T10:09:59.837Z,4.60
2022-08-14T10:12:54.668Z,4.15
2022-08-14T10:15:30.083Z,4.40
2022-08-14T10:18:17.815Z,4.22
2022-08-14T10:20:57.882Z,3.93
2022-08-14T10:23:35.015Z,3.90
2022-08-14T10:26:09.925Z,4.40
2022-08-14T10:29:19.531Z,3.78
2022-08-14T10:31:46.460Z,4.25
2022-08-14T10:34:35.802Z,4.40
2022-08-14T10:37:14.436Z,3.72
2022-08-14T10:40:01.979Z,4.15
2022-08-14T10:42:39.724Z,4.30
2022-08-14T10:45:23.269Z,4.20
2022-08-14T10:48:08.774Z,4.00
2022-08-14T10:50:51.561Z,3.80
2022-08-14T10:53:35.129Z,4.03
2022-08-14T10:56:21.734Z,5.20
2022-08-14T10:59:05.225Z,4.20
2022-08-14T11:01:38.511Z,4.95
2022-08-14T11:04:30.759Z,4.07
2022-08-14T11:07:05.898Z,3.70
2022-08-14T11:09:36.889Z,4.20
2022-08-14T11:12:33.249Z,4.32
2022-08-14T11:15:03.063Z,4.20
2022-08-14T11:17:36.256Z,4.00
2022-08-14T11:20:14.108Z,3.85
2022-08-14T11:22:57.795Z,4.07
2022-08-14T11:25:41.336Z,3.70
2022-08-14T11:28:19.426Z,3.70
2022-08-14T11:30:53.822Z,3.90
2022-08-14T11:33:32.517Z,3.33
2022-08-14T11:36:17.795Z,3.40
2022-08-14T11:38:51.543Z,3.90
2022-08-14T11:41:27.233Z,3.70
2022-08-14T11:43:58.341Z,3.63
2022-08-14T11:46:37.533Z,3.85
2022-08-14T11:49:09.486Z,3.75
2022-08-14T11:51:54.397Z,3.83
2022-08-14T11:54:33.522Z,3.80
2022-08-14T11:57:05.940Z,3.90
2022-08-14T11:59:43.908Z,4.07
2022-08-14T12:02:38.810Z,3.72
2022-08-14T12:05:09.278Z,4.00
2022-08-14T12:07:51.251Z,4.00
2022-08-14T12:10:27.351Z,4.05
2022-08-14T12:13:17.646Z,4.30
2022-08-14T12:15:51.477Z,4.35
2022-08-14T12:18:34.507Z,4.30
2022-08-14T12:21:19.262Z,4.05
2022-08-14T12:24:03.174Z,4.07
2022-08-14T12:26:40.618Z,3.70
2022-08-14T12:29:14.563Z,3.80
2022-08-14T12:31:50.391Z,3.85
2022-08-14T12:34:24.228Z,3.60
2022-08-14T12:37:06.943Z,3.85
2022-08-14T12:39:39.803Z,3.70
2022-08-14T12:42:27.262Z,3.95
2022-08-14T12:45:05.164Z,3.80
2022-08-14T12:47:35.670Z,3.58
2022-08-14T12:50:07.419Z,3.72
2022-08-14T12:52:54.001Z,3.85
2022-08-14T12:55:44.131Z,4.00
2022-08-14T12:58:35.180Z,4.20
2022-08-14T13:01:23.257Z,3.88
2022-08-14T13:03:55.547Z,3.90
2022-08-14T13:06:29.319Z,4.22
2022-08-14T13:09:01.043Z,4.32
2022-08-14T13:11:41.393Z,4.53
2022-08-14T13:14:26.088Z,4.78
2022-08-14T13:17:01.892Z,4.35
2022-08-14T13:19:36.737Z,4.90
2022-08-14T13:22:10.195Z,4.95
2022-08-14T13:24:51.247Z,4.88
2022-08-14T13:27:25.557Z,5.10
2022-08-14T13:30:03.167Z,5.68
2022-08-14T13:32:45.044Z,4.63
2022-08-14T13:35:18.571Z,4.93
2022-08-14T13:37:52.239Z,4.70
2022-08-14T13:40:27.779Z,4.82
2022-08-14T13:42:59.448Z,4.20
2022-08-14T13:45:59.883Z,4.40
2022-08-14T13:48:32.633Z,4.53
2022-08-14T13:51:10.842Z,4.30
2022-08-14T13:54:06.896Z,4.10
2022-08-14T13:56:43.208Z,4.47
2022-08-14T13:59:20.217Z,4.45
2022-08-14T14:02:10.233Z,5.10
2022-08-14T14:04:49.264Z,4.10
2022-08-14T14:07:24.239Z,4.40
2022-08-14T14:10:06.903Z,4.13
2022-08-14T14:12:41.437Z,4.30
2022-08-14T14:15:15.075Z,4.50
2022-08-14T14:17:51.461Z,4.72
2022-08-14T14:20:35.327Z,4.13
2022-08-14T14:23:11.713Z,4.38
2022-08-14T14:25:51.064Z,4.72
2022-08-14T14:28:34.437Z,4.57
2022-08-14T14:31:08.698Z,4.70
2022-08-14T14:33:48.892Z,5.00
2022-08-14T14:36:26.124Z,4.53
2022-08-14T14:38:58.925Z,4.80
2022-08-14T14:41:37.548Z,4.82
2022-08-14T14:44:16.585Z,4.30
2022-08-14T14:46:50.137Z,4.40
2022-08-14T14:49:32.030Z,4.55
2022-08-14T14:52:23.126Z,4.53
2022-08-14T14:54:58.761Z,4.28
2022-08-14T14:57:34.900Z,4.50
2022-08-14T15:00:12.758Z,4.70
2022-08-14T15:02:46.567Z,5.07
2022-08-14T15:05:20.890Z,4.38
2022-08-14T15:07:54.222Z,4.30
2022-08-14T15:10:31.738Z,6.65
2022-08-14T15:13:06.727Z,5.90
2022-08-14T15:15:37.868Z,9.35
2022-08-14T15:18:36.888Z,5.82
2022-08-14T15:21:03.873Z,4.60
2022-08-14T15:23:44.541Z,4.47
2022-08-14T15:26:23.440Z,4.22
2022-08-14T15:29:05.051Z,4.47
2022-08-14T15:31:37.499Z,4.43
2022-08-14T15:34:40.998Z,4.35
2022-08-14T15:37:10.954Z,4.63
2022-08-14T15:39:43.653Z,4.88
2022-08-14T15:42:16.690Z,4.97
2022-08-14T15:44:58.482Z,4.88
2022-08-14T15:47:35.042Z,5.43
2022-08-14T15:50:13.082Z,4.90
2022-08-14T15:52:46.244Z,5.63
2022-08-14T15:55:18.185Z,5.60
2022-08-14T15:58:02.273Z,4.75
2022-08-14T16:00:49.786Z,4.88
2022-08-14T16:03:24.907Z,4.63
2022-08-14T16:05:58.671Z,9.63
2022-08-14T16:08:31.641Z,16.30
2022-08-14T16:11:05.608Z,5.40
2022-08-14T16:13:43.305Z,5.32
2022-08-14T16:16:49.435Z,4.80
2022-08-14T16:19:12.800Z,5.90
2022-08-14T16:22:01.561Z,5.88
2022-08-14T16:25:01.968Z,5.10
2022-08-14T16:27:38.996Z,4.75
2022-08-14T16:30:24.612Z,4.50
2022-08-14T16:32:56.793Z,5.10
2022-08-14T16:35:42.652Z,4.78
2022-08-14T16:38:46.123Z,4.85
2022-08-14T16:41:26.326Z,4.78
2022-08-14T16:44:01.423Z,4.65
2022-08-14T16:46:38.250Z,5.43
2022-08-14T16:49:16.221Z,4.60
2022-08-14T16:51:51.304Z,14.18
2022-08-14T16:54:34.951Z,9.20
2022-08-14T16:57:24.409Z,8.10
2022-08-14T16:59:59.275Z,5.85
2022-08-14T17:02:39.128Z,5.43
2022-08-14T17:05:24.945Z,5.28
2022-08-14T17:08:33.052Z,5.07
2022-08-14T17:11:12.677Z,5.07
2022-08-14T17:14:00.553Z,4.53
2022-08-14T17:16:37.656Z,4.88
2022-08-14T17:19:13.637Z,6.50
2022-08-14T17:21:46.937Z,6.43
2022-08-14T17:24:56.644Z,7.07
2022-08-14T17:27:11.574Z,5.63
2022-08-14T17:29:57.723Z,5.70
2022-08-14T17:32:56.749Z,5.50
2022-08-14T17:35:58.810Z,5.93
2022-08-14T17:38:38.812Z,5.43
2022-08-14T17:41:33.005Z,5.70
2022-08-14T17:44:21.929Z,5.43
2022-08-14T17:47:10.188Z,5.20
2022-08-14T17:49:52.257Z,5.22
2022-08-14T17:52:34.735Z,5.57
2022-08-14T17:55:09.973Z,5.28
2022-08-14T17:57:45.168Z,5.75
2022-08-14T18:00:19.488Z,7.28
2022-08-14T18:02:54.079Z,7.20
2022-08-14T18:06:09.915Z,6.85
2022-08-14T18:08:33.334Z,6.47
2022-08-14T18:11:15.253Z,36.90
2022-08-14T18:13:51.238Z,17.02
2022-08-14T18:16:22.981Z,8.77
2022-08-14T18:18:56.014Z,7.03
2022-08-14T18:21:41.988Z,6.47
2022-08-14T18:27:09.426Z,6.35
2022-08-14T18:29:54.649Z,5.75
2022-08-14T18:32:47.170Z,5.95
2022-08-14T18:35:45.915Z,5.80
2022-08-14T18:38:45.902Z,12.65
2022-08-14T18:41:36.802Z,8.25
2022-08-14T18:44:10.548Z,7.28
2022-08-14T18:47:25.423Z,5.88
2022-08-14T18:50:27.664Z,5.75
2022-08-14T18:53:12.945Z,5.70
2022-08-14T18:56:00.038Z,6.05
2022-08-14T18:58:49.334Z,6.03
2022-08-14T19:01:33.398Z,5.90
2022-08-14T19:04:04.680Z,5.97
2022-08-14T19:06:55.893Z,5.68
2022-08-14T19:09:58.000Z,6.47
2022-08-14T19:13:11.981Z,6.18
2022-08-14T19:15:55.956Z,6.03
2022-08-14T19:18:29.637Z,6.20
2022-08-14T19:21:02.648Z,6.32
2022-08-14T19:23:59.340Z,6.13
2022-08-14T19:26:37.006Z,6.45
2022-08-14T19:29:37.755Z,6.05
2022-08-14T19:32:41.913Z,7.22
2022-08-14T19:35:59.925Z,6.53
2022-08-14T19:38:54.681Z,6.60
2022-08-14T19:41:34.134Z,7.07
2022-08-14T19:44:16.469Z,6.88
2022-08-14T19:47:01.340Z,7.10
2022-08-14T19:50:08.042Z,6.65
2022-08-14T19:52:37.318Z,6.25
2022-08-14T19:55:18.986Z,6.25
2022-08-14T19:57:58.027Z,6.55
2022-08-14T20:00:30.607Z,6.00
2022-08-14T20:03:11.686Z,6.82
2022-08-14T20:05:46.753Z,5.88
2022-08-14T20:11:00.609Z,6.10
2022-08-14T20:12:00.481Z,5.60
2022-08-14T20:14:20.826Z,6.22
2022-08-14T20:17:06.248Z,5.95
2022-08-14T20:19:41.800Z,5.68
2022-08-14T20:22:35.403Z,5.85
2022-08-14T20:25:18.596Z,6.95
2022-08-14T20:27:59.665Z,6.47
2022-08-14T20:30:35.419Z,6.35
2022-08-14T20:33:11.475Z,6.13
2022-08-14T20:35:49.240Z,6.03
2022-08-14T20:38:31.046Z,6.63
2022-08-14T20:41:09.688Z,5.90
2022-08-14T20:43:55.962Z,5.60
2022-08-14T20:46:31.019Z,6.00
2022-08-14T20:49:05.187Z,6.25
2022-08-14T20:51:47.406Z,6.00
2022-08-14T20:54:34.505Z,6.20
2022-08-14T20:57:14.170Z,6.30
2022-08-14T20:59:47.084Z,5.72
2022-08-14T21:02:46.183Z,5.95
2022-08-14T21:05:34.007Z,6.03
2022-08-14T21:08:08.149Z,6.25
2022-08-14T21:10:44.014Z,5.75
2022-08-14T21:14:09.051Z,6.25
2022-08-14T21:16:25.969Z,6.03
2022-08-14T21:19:03.929Z,5.97
2022-08-14T21:21:40.708Z,6.43
2022-08-14T21:24:39.771Z,6.13
2022-08-14T21:27:12.621Z,6.00
2022-08-14T21:29:53.816Z,6.40
2022-08-14T21:32:46.998Z,6.50
2022-08-14T21:35:24.501Z,6.07
2022-08-14T21:37:55.657Z,6.20
2022-08-14T21:40:41.642Z,6.40
2022-08-14T21:43:18.462Z,6.78
2022-08-14T21:45:54.086Z,5.82
2022-08-14T21:48:29.508Z,6.03
2022-08-14T21:51:55.318Z,7.38
2022-08-14T21:54:01.356Z,7.70
2022-08-14T21:56:40.906Z,7.65
2022-08-14T21:59:29.781Z,6.78
2022-08-14T22:02:03.619Z,6.85
2022-08-14T22:04:40.780Z,6.82
2022-08-14T22:07:18.258Z,6.45
2022-08-14T22:09:54.799Z,6.38
2022-08-14T22:12:58.608Z,6.45
2022-08-14T22:15:19.855Z,7.00
2022-08-14T22:17:54.782Z,6.80
2022-08-14T22:20:28.572Z,6.53
2022-08-14T22:23:12.691Z,7.00
2022-08-14T22:25:46.728Z,6.40
2022-08-14T22:28:25.445Z,7.50
2022-08-14T22:30:57.621Z,7.10
2022-08-14T22:33:31.161Z,8.55
2022-08-14T22:36:25.283Z,7.57
2022-08-14T22:38:59.208Z,6.43
2022-08-14T22:41:36.947Z,6.22
2022-08-14T22:44:17.917Z,6.43
2022-08-14T22:46:48.868Z,6.68
2022-08-14T22:50:31.239Z,6.93
2022-08-14T22:52:31.772Z,6.25
2022-08-14T22:55:07.637Z,6.18
2022-08-14T22:57:42.113Z,7.20
2022-08-14T23:00:25.369Z,6.50
2022-08-14T23:03:05.092Z,6.47
2022-08-14T23:05:39.796Z,6.75
2022-08-14T23:08:57.536Z,6.50
2022-08-14T23:11:15.490Z,6.30
2022-08-14T23:13:48.869Z,6.60
2022-08-14T23:16:21.208Z,6.60
2022-08-14T23:18:54.237Z,6.43
2022-08-14T23:21:28.672Z,6.35
2022-08-14T23:24:00.849Z,6.72
2022-08-14T23:26:48.590Z,6.28
2022-08-14T23:29:22.665Z,6.05
2022-08-14T23:31:53.019Z,6.40
2022-08-14T23:34:25.744Z,6.38
2022-08-14T23:37:03.881Z,6.53
2022-08-14T23:39:39.107Z,6.78
2022-08-14T23:42:18.000Z,6.65
2022-08-14T23:44:49.317Z,6.88
2022-08-14T23:47:26.174Z,7.00
2022-08-14T23:50:04.042Z,6.35
2022-08-14T23:52:55.558Z,6.70
2022-08-14T23:55:35.238Z,6.82
2022-08-14T23:58:08.030Z,6.90
